Time;durP1;ratioP1;P1;durP2;ratioP2;P2;SDS_P1;SDS_P2;PMS_P1;PMS_P2;Temp;Humidity;BMP_temperature;BMP_pressure;BME280_temperature;BME280_humidity;BME280_pressure;Samples;Min_cycle;Max_cycle;Signal;HPM_P1;HPM_P2
2022/06/10 00:00:37;;;;;;;3.70;2.60;;;14.10;99.90;;;;;;6091383;23;20925;-82
2022/06/10 00:03:06;;;;;;;2.70;2.50;;;14.20;99.90;;;;;;6091407;23;20438;-82
2022/06/10 00:05:36;;;;;;;5.27;2.60;;;14.20;99.90;;;;;;6090613;23;20822;-82
2022/06/10 00:08:06;;;;;;;3.33;2.20;;;14.20;99.90;;;;;;6091647;23;20493;-82
2022/06/10 00:10:34;;;;;;;1.60;1.50;;;14.20;99.90;;;;;;6091806;23;20457;-82
2022/06/10 00:13:01;;;;;;;2.60;2.40;;;14.20;99.90;;;;;;6091875;23;20507;-82
2022/06/10 00:15:29;;;;;;;4.30;2.50;;;14.30;99.90;;;;;;6091071;23;20461;-82
2022/06/10 00:17:56;;;;;;;4.07;2.50;;;14.30;99.90;;;;;;6091366;23;20466;-82
2022/06/10 00:20:27;;;;;;;5.00;3.00;;;14.30;99.90;;;;;;6091027;23;20474;-82
2022/06/10 00:22:55;;;;;;;4.23;2.80;;;14.40;99.90;;;;;;6091479;23;20450;-81
2022/06/10 00:25:23;;;;;;;3.30;2.77;;;14.30;99.90;;;;;;6091181;23;20462;-82
2022/06/10 00:27:51;;;;;;;3.30;2.97;;;14.30;99.90;;;;;;6091416;23;20461;-82
2022/06/10 00:30:22;;;;;;;6.47;3.30;;;14.30;99.90;;;;;;6091424;23;20435;-82
2022/06/10 00:32:48;;;;;;;2.90;2.60;;;14.20;99.90;;;;;;6091532;23;20442;-82
2022/06/10 00:35:16;;;;;;;2.40;2.20;;;14.20;99.90;;;;;;6089972;23;20459;-82
2022/06/10 00:37:45;;;;;;;2.70;2.50;;;14.20;99.90;;;;;;6091193;23;20450;-81
2022/06/10 00:40:16;;;;;;;3.23;2.90;;;14.10;99.90;;;;;;6091254;23;20435;-82
2022/06/10 00:42:43;;;;;;;3.20;2.80;;;14.10;99.90;;;;;;6091458;23;20440;-84
2022/06/10 00:45:47;;;;;;;2.77;2.57;;;14.10;99.90;;;;;;6090868;23;20442;-82
2022/06/10 00:48:20;;;;;;;5.17;3.10;;;14.10;99.90;;;;;;6086281;23;20458;-82
2022/06/10 00:50:48;;;;;;;3.13;2.83;;;14.10;99.90;;;;;;6091418;23;20454;-82
2022/06/10 00:53:20;;;;;;;3.50;2.47;;;14.00;99.90;;;;;;6091169;23;20474;-81
2022/06/10 00:55:49;;;;;;;3.80;2.60;;;14.00;99.90;;;;;;6090541;23;20845;-82
2022/06/10 00:58:21;;;;;;;3.20;2.40;;;13.90;99.90;;;;;;6091025;23;20545;-81
2022/06/10 01:00:49;;;;;;;3.13;2.80;;;13.80;99.90;;;;;;6091451;23;20435;-81
2022/06/10 01:03:16;;;;;;;3.60;2.50;;;13.80;99.90;;;;;;6091186;23;20466;-82
2022/06/10 01:05:42;;;;;;;2.70;2.50;;;13.80;99.90;;;;;;6091181;23;20271;-82
2022/06/10 01:08:13;;;;;;;4.32;2.90;;;13.80;99.90;;;;;;6090955;23;20482;-82
2022/06/10 01:10:58;;;;;;;3.10;2.60;;;13.80;99.90;;;;;;6090906;23;20519;-82
2022/06/10 01:13:36;;;;;;;4.50;2.90;;;13.80;99.90;;;;;;6091141;23;20426;-82
2022/06/10 01:16:12;;;;;;;2.63;2.42;;;13.80;99.90;;;;;;6089832;23;21015;-82
2022/06/10 01:18:50;;;;;;;5.10;2.60;;;13.90;99.90;;;;;;6090821;23;20275;-82
2022/06/10 01:21:37;;;;;;;4.28;3.15;;;13.90;99.90;;;;;;6090851;23;20540;-81
2022/06/10 01:24:35;;;;;;;4.30;2.95;;;13.90;99.90;;;;;;6091130;23;20503;-82
2022/06/10 01:27:50;;;;;;;4.17;2.80;;;13.80;99.90;;;;;;6078793;23;20741;-82
2022/06/10 01:30:41;;;;;;;3.60;3.20;;;13.70;99.90;;;;;;6090721;23;20435;-82
2022/06/10 01:33:18;;;;;;;4.83;2.40;;;13.60;99.90;;;;;;6090867;23;20188;-82
2022/06/10 01:35:58;;;;;;;4.20;2.73;;;13.50;99.90;;;;;;6090243;23;20917;-82
2022/06/10 01:38:28;;;;;;;5.22;2.85;;;13.50;99.90;;;;;;6090908;23;20842;-81
2022/06/10 01:41:03;;;;;;;2.92;2.70;;;13.50;99.90;;;;;;6090890;23;20708;-82
2022/06/10 01:43:41;;;;;;;5.70;2.97;;;13.50;99.90;;;;;;6090906;23;20200;-82
2022/06/10 01:46:12;;;;;;;3.30;3.00;;;13.50;99.90;;;;;;6090969;23;20187;-82
2022/06/10 01:48:48;;;;;;;2.97;2.67;;;13.50;99.90;;;;;;6092238;23;20195;-82
2022/06/10 01:51:20;;;;;;;4.40;3.00;;;13.40;99.90;;;;;;6092224;23;20233;-81
2022/06/10 01:53:53;;;;;;;3.88;2.60;;;13.40;99.90;;;;;;6092021;23;20219;-81
2022/06/10 01:56:24;;;;;;;2.88;2.58;;;13.40;99.90;;;;;;6091391;23;20844;-82
2022/06/10 01:58:54;;;;;;;5.70;2.83;;;13.40;99.90;;;;;;6092530;23;20192;-82
2022/06/10 02:01:24;;;;;;;3.15;2.85;;;13.40;99.90;;;;;;6092340;23;20255;-82
2022/06/10 02:03:57;;;;;;;3.17;2.88;;;13.30;99.90;;;;;;6092328;23;20585;-82
2022/06/10 02:06:29;;;;;;;3.50;2.80;;;13.30;99.90;;;;;;6091604;23;20204;-81
2022/06/10 02:08:59;;;;;;;3.78;3.35;;;13.20;99.90;;;;;;6090871;23;20194;-82
2022/06/10 02:11:27;;;;;;;3.47;3.17;;;13.20;99.90;;;;;;6090874;23;20176;-82
2022/06/10 02:13:58;;;;;;;3.97;3.63;;;13.10;99.90;;;;;;6092171;23;20185;-81
2022/06/10 02:16:28;;;;;;;4.90;3.95;;;13.00;99.90;;;;;;6091254;23;20228;-82
2022/06/10 02:19:03;;;;;;;5.10;3.90;;;13.00;99.90;;;;;;6091899;23;20187;-81
2022/06/10 02:21:37;;;;;;;3.88;3.40;;;12.90;99.90;;;;;;6092258;23;20179;-81
2022/06/10 02:24:09;;;;;;;4.95;3.88;;;12.90;99.90;;;;;;6092227;23;20184;-81
2022/06/10 02:26:38;;;;;;;3.40;3.10;;;12.90;99.90;;;;;;6091203;23;20262;-82
2022/06/10 02:29:09;;;;;;;4.05;3.20;;;12.90;99.90;;;;;;6091709;23;20215;-81
2022/06/10 02:31:41;;;;;;;5.07;3.40;;;12.80;99.90;;;;;;6091696;23;20271;-81
2022/06/10 02:34:10;;;;;;;3.80;3.50;;;12.80;99.90;;;;;;6091661;23;20606;-81
2022/06/10 02:36:43;;;;;;;4.85;3.58;;;12.70;99.90;;;;;;6091567;23;20638;-81
2022/06/10 02:39:18;;;;;;;5.78;3.58;;;12.70;99.90;;;;;;6091965;23;20187;-81
2022/06/10 02:41:51;;;;;;;4.13;3.72;;;12.60;99.90;;;;;;6092211;23;20176;-81
2022/06/10 02:44:28;;;;;;;4.03;3.65;;;12.50;99.90;;;;;;6091743;23;20226;-81
2022/06/10 02:47:07;;;;;;;4.40;4.05;;;12.50;99.90;;;;;;6090979;23;20683;-81
2022/06/10 02:49:36;;;;;;;4.32;3.90;;;12.40;99.90;;;;;;6091905;23;20187;-81
2022/06/10 02:52:04;;;;;;;3.90;3.58;;;12.40;99.90;;;;;;6091680;23;20219;-82
2022/06/10 02:54:35;;;;;;;4.55;3.92;;;12.30;99.90;;;;;;6091334;23;20267;-82
2022/06/10 02:57:12;;;;;;;5.05;4.65;;;12.30;99.90;;;;;;6090813;23;20321;-82
2022/06/10 03:02:31;;;;;;;4.90;4.35;;;12.20;99.90;;;;;;6091343;23;20188;-81
2022/06/10 03:05:18;;;;;;;4.70;3.92;;;12.20;99.90;;;;;;6091901;23;20258;-81
2022/06/10 03:07:58;;;;;;;5.30;4.10;;;12.10;99.90;;;;;;6091840;23;20290;-81
2022/06/10 03:10:37;;;;;;;4.72;4.32;;;12.10;99.90;;;;;;6092163;23;20194;-81
2022/06/10 03:13:29;;;;;;;5.47;4.50;;;12.10;99.90;;;;;;6091398;23;20259;-81
2022/06/10 03:16:07;;;;;;;4.97;4.50;;;12.10;99.90;;;;;;6091077;23;20266;-81
2022/06/10 03:18:46;;;;;;;5.25;4.75;;;12.20;99.90;;;;;;6091845;23;20188;-81
2022/06/10 03:21:24;;;;;;;7.05;5.18;;;12.20;99.90;;;;;;6091575;23;20184;-82
2022/06/10 03:24:06;;;;;;;5.55;5.07;;;12.20;99.90;;;;;;6091442;23;20226;-81
2022/06/10 03:26:42;;;;;;;6.13;5.53;;;12.00;99.90;;;;;;6091532;23;20231;-81
2022/06/10 03:29:18;;;;;;;5.30;4.90;;;12.00;99.90;;;;;;6091869;23;20194;-81
2022/06/10 03:31:51;;;;;;;6.65;5.93;;;11.90;99.90;;;;;;6091604;23;20641;-81
2022/06/10 03:34:23;;;;;;;5.70;5.20;;;11.90;99.90;;;;;;6091821;23;20626;-82
2022/06/10 03:36:53;;;;;;;6.18;5.57;;;11.80;99.90;;;;;;6091529;23;20219;-81
2022/06/10 03:39:22;;;;;;;6.57;5.60;;;11.80;99.90;;;;;;6091614;23;20592;-82
2022/06/10 03:42:08;;;;;;;5.72;5.18;;;11.80;99.90;;;;;;6091739;23;20188;-82
2022/06/10 03:44:35;;;;;;;6.45;5.70;;;11.70;99.90;;;;;;6091861;23;20188;-81
2022/06/10 03:47:05;;;;;;;8.80;5.90;;;11.70;99.90;;;;;;6091343;23;20730;-81
2022/06/10 03:49:40;;;;;;;5.60;5.10;;;11.70;99.90;;;;;;6091788;23;20188;-81
2022/06/10 03:52:10;;;;;;;6.88;5.07;;;11.70;99.90;;;;;;6091268;23;20286;-81
2022/06/10 03:54:37;;;;;;;6.63;6.03;;;11.70;99.90;;;;;;6092140;23;20318;-81
2022/06/10 03:57:05;;;;;;;6.38;5.53;;;11.60;99.90;;;;;;6091041;23;20683;-81
2022/06/10 03:59:32;;;;;;;5.28;4.78;;;11.70;99.90;;;;;;6091266;23;20263;-81
2022/06/10 04:01:59;;;;;;;5.53;5.03;;;11.70;99.90;;;;;;6091780;23;20615;-81
2022/06/10 04:04:26;;;;;;;5.78;5.18;;;11.60;99.90;;;;;;6091974;23;20236;-81
2022/06/10 04:06:53;;;;;;;5.72;5.15;;;11.60;99.90;;;;;;6091242;23;20292;-81
2022/06/10 04:09:21;;;;;;;6.25;5.65;;;11.60;99.90;;;;;;6091259;23;20184;-81
2022/06/10 04:11:48;;;;;;;6.30;5.70;;;11.60;99.90;;;;;;6091462;23;20199;-82
2022/06/10 04:14:15;;;;;;;6.82;5.18;;;11.80;99.90;;;;;;6091590;23;20192;-81
2022/06/10 04:16:42;;;;;;;7.75;4.90;;;11.60;99.90;;;;;;6090890;23;20211;-81
2022/06/10 04:19:10;;;;;;;5.95;5.45;;;11.70;99.90;;;;;;6091483;23;20215;-81
2022/06/10 04:21:37;;;;;;;6.57;4.93;;;11.70;99.90;;;;;;6091334;23;20266;-81
2022/06/10 04:24:05;;;;;;;7.25;5.13;;;11.70;99.90;;;;;;6091305;23;20272;-81
2022/06/10 04:26:33;;;;;;;5.85;5.05;;;11.70;99.90;;;;;;6091109;23;20294;-81
2022/06/10 04:29:00;;;;;;;5.35;4.80;;;11.80;99.90;;;;;;6091181;23;20647;-81
2022/06/10 04:31:27;;;;;;;5.10;4.70;;;11.70;99.90;;;;;;6091363;23;20253;-82
2022/06/10 04:33:54;;;;;;;6.10;4.90;;;11.70;99.90;;;;;;6091120;23;20662;-81
2022/06/10 04:36:21;;;;;;;5.78;4.82;;;11.70;99.90;;;;;;6090985;23;20225;-81
2022/06/10 04:38:48;;;;;;;6.03;5.10;;;11.70;99.90;;;;;;6091086;23;20667;-82
2022/06/10 04:41:17;;;;;;;6.25;5.30;;;11.80;99.90;;;;;;6090945;23;20180;-81
2022/06/10 04:43:45;;;;;;;5.45;5.05;;;11.80;99.90;;;;;;6091059;23;20192;-81
2022/06/10 04:46:23;;;;;;;5.22;4.68;;;11.80;99.90;;;;;;6091016;23;20615;-81
2022/06/10 04:48:50;;;;;;;6.97;5.07;;;11.90;99.90;;;;;;6090731;23;20188;-81
2022/06/10 04:51:17;;;;;;;6.53;5.25;;;11.90;99.90;;;;;;6091420;23;20210;-81
2022/06/10 04:53:44;;;;;;;4.70;4.40;;;12.00;99.90;;;;;;6091068;23;20215;-81
2022/06/10 04:56:11;;;;;;;5.28;4.78;;;12.00;99.90;;;;;;6091030;23;20282;-81
2022/06/10 04:58:38;;;;;;;5.97;5.43;;;12.10;99.90;;;;;;6090839;23;20278;-81
2022/06/10 05:01:06;;;;;;;6.45;5.72;;;12.10;99.90;;;;;;6091207;23;20266;-81
2022/06/10 05:03:34;;;;;;;5.72;5.22;;;12.20;99.90;;;;;;6091087;23;20234;-81
2022/06/10 05:06:01;;;;;;;4.70;4.22;;;12.30;99.90;;;;;;6090555;23;20267;-80
2022/06/10 05:08:28;;;;;;;6.07;5.25;;;12.40;99.90;;;;;;6090952;23;20199;-81
2022/06/10 05:10:55;;;;;;;6.15;4.82;;;12.40;99.90;;;;;;6090809;23;20274;-81
2022/06/10 05:13:22;;;;;;;5.47;4.97;;;12.50;99.90;;;;;;6091195;23;20184;-81
2022/06/10 05:15:49;;;;;;;4.90;4.43;;;12.50;99.90;;;;;;6090835;23;20195;-81
2022/06/10 05:18:22;;;;;;;6.47;4.72;;;12.60;99.90;;;;;;6085853;23;20319;-78
2022/06/10 05:20:50;;;;;;;4.80;4.35;;;12.70;99.90;;;;;;6093929;23;20191;-79
2022/06/10 05:23:20;;;;;;;4.75;4.25;;;12.80;99.90;;;;;;6097894;23;20504;-79
2022/06/10 05:25:47;;;;;;;4.18;3.85;;;12.80;99.90;;;;;;6096479;23;20184;-79
2022/06/10 05:28:15;;;;;;;5.13;4.25;;;12.90;99.90;;;;;;6096721;23;20203;-80
2022/06/10 05:30:42;;;;;;;4.85;4.35;;;13.00;99.90;;;;;;6095522;23;20219;-79
2022/06/10 05:33:10;;;;;;;5.90;4.78;;;13.10;99.90;;;;;;6095162;23;20190;-79
2022/06/10 05:35:39;;;;;;;5.23;4.30;;;13.10;99.90;;;;;;6094908;23;20221;-79
2022/06/10 05:38:07;;;;;;;4.33;3.93;;;13.30;99.90;;;;;;6095188;23;21083;-79
2022/06/10 05:40:35;;;;;;;4.73;4.23;;;13.40;99.90;;;;;;6096351;23;20521;-79
2022/06/10 05:43:05;;;;;;;4.67;4.27;;;13.50;99.90;;;;;;6099832;23;20465;-79
2022/06/10 05:45:32;;;;;;;8.60;4.70;;;13.70;99.90;;;;;;6095594;23;20442;-79
2022/06/10 05:48:02;;;;;;;6.20;4.25;;;13.80;99.90;;;;;;6094617;23;20207;-80
2022/06/10 05:50:32;;;;;;;5.40;4.33;;;13.90;99.90;;;;;;6094697;23;20274;-79
2022/06/10 05:53:01;;;;;;;4.83;4.00;;;14.10;99.90;;;;;;6094387;23;20433;-79
2022/06/10 05:55:30;;;;;;;3.87;3.57;;;14.20;99.90;;;;;;6094297;23;20434;-79
2022/06/10 05:57:57;;;;;;;5.57;4.27;;;14.30;99.90;;;;;;6094145;23;20552;-79
2022/06/10 06:00:27;;;;;;;4.77;4.27;;;14.40;99.90;;;;;;6094241;23;20740;-79
2022/06/10 06:02:54;;;;;;;5.00;4.50;;;14.40;99.90;;;;;;6094720;23;20476;-80
2022/06/10 06:05:23;;;;;;;6.67;4.73;;;14.40;99.90;;;;;;6094145;23;20468;-80
2022/06/10 06:07:51;;;;;;;7.83;4.80;;;14.50;99.90;;;;;;6094550;23;20992;-79
2022/06/10 06:10:21;;;;;;;4.27;3.87;;;14.60;99.90;;;;;;6094559;23;20461;-79
2022/06/10 06:12:48;;;;;;;4.97;4.53;;;14.80;99.90;;;;;;6093899;23;20450;-80
2022/06/10 06:15:17;;;;;;;4.83;3.97;;;14.90;99.90;;;;;;6094457;23;20500;-79
2022/06/10 06:17:45;;;;;;;4.70;4.20;;;15.00;99.90;;;;;;6094148;23;20478;-79
2022/06/10 06:20:15;;;;;;;5.77;4.40;;;15.10;99.90;;;;;;6094516;23;20526;-79
2022/06/10 06:22:42;;;;;;;4.90;4.50;;;15.20;99.90;;;;;;6094159;23;20430;-79
2022/06/10 06:25:15;;;;;;;4.10;3.60;;;15.30;99.90;;;;;;6093847;23;20489;-79
2022/06/10 06:27:45;;;;;;;4.00;3.67;;;15.50;99.90;;;;;;6093950;23;20957;-79
2022/06/10 06:30:17;;;;;;;4.37;3.50;;;15.60;99.90;;;;;;6094121;23;21014;-79
2022/06/10 06:32:44;;;;;;;4.60;3.50;;;15.80;99.90;;;;;;6092308;23;20431;-79
2022/06/10 06:35:11;;;;;;;3.30;3.00;;;16.00;99.90;;;;;;6092728;23;20839;-80
2022/06/10 06:37:38;;;;;;;4.53;2.90;;;16.10;99.90;;;;;;6091846;23;21031;-80
2022/06/10 06:40:07;;;;;;;3.43;3.10;;;16.20;99.90;;;;;;6094043;23;20650;-79
2022/06/10 06:42:36;;;;;;;5.47;3.30;;;16.20;99.90;;;;;;6092679;23;20464;-79
2022/06/10 06:45:06;;;;;;;3.33;3.00;;;16.40;99.90;;;;;;6092812;23;20520;-80
2022/06/10 06:47:34;;;;;;;3.03;2.83;;;16.60;99.90;;;;;;6093204;23;20541;-79
2022/06/10 06:50:01;;;;;;;4.90;2.97;;;16.80;99.90;;;;;;6093278;23;20477;-79
2022/06/10 06:52:28;;;;;;;5.77;2.93;;;16.90;99.90;;;;;;6094274;23;20763;-80
2022/06/10 06:54:55;;;;;;;3.63;2.73;;;17.00;99.90;;;;;;6093237;23;20937;-80
2022/06/10 06:57:25;;;;;;;4.47;2.97;;;17.20;99.90;;;;;;6092726;23;20977;-81
2022/06/10 06:59:53;;;;;;;4.60;3.27;;;17.20;99.90;;;;;;6093285;23;20518;-79
2022/06/10 07:02:21;;;;;;;3.60;2.83;;;17.40;99.90;;;;;;6092828;23;21070;-80
2022/06/10 07:04:48;;;;;;;8.83;3.70;;;17.50;99.90;;;;;;6093037;23;20437;-80
2022/06/10 07:07:17;;;;;;;4.20;2.70;;;17.60;99.90;;;;;;6092719;23;20962;-80
2022/06/10 07:09:44;;;;;;;7.80;3.67;;;17.70;99.90;;;;;;6092928;23;20450;-79
2022/06/10 07:12:13;;;;;;;3.70;2.83;;;17.70;99.90;;;;;;6093231;23;20489;-80
2022/06/10 07:14:41;;;;;;;4.40;2.70;;;17.80;99.90;;;;;;6093279;23;20446;-80
2022/06/10 07:17:11;;;;;;;3.07;2.40;;;17.90;99.90;;;;;;6067845;23;20587;-80
2022/06/10 07:19:40;;;;;;;3.70;2.93;;;18.00;99.90;;;;;;6092772;23;20846;-79
2022/06/10 07:22:07;;;;;;;3.27;2.67;;;18.00;99.90;;;;;;6093165;23;20462;-79
2022/06/10 07:24:34;;;;;;;5.40;3.40;;;18.10;99.90;;;;;;6067480;23;20808;-79
2022/06/10 07:27:03;;;;;;;2.70;2.23;;;18.20;99.90;;;;;;6092441;23;20573;-80
2022/06/10 07:29:30;;;;;;;3.40;2.90;;;18.40;99.90;;;;;;6092905;23;20476;-79
2022/06/10 07:31:57;;;;;;;5.20;3.00;;;18.60;99.90;;;;;;6093155;23;20512;-79
2022/06/10 07:34:24;;;;;;;6.03;3.30;;;18.80;99.90;;;;;;6092991;23;20439;-79
2022/06/10 07:36:52;;;;;;;3.93;2.30;;;19.10;99.90;;;;;;6092173;23;20989;-79
2022/06/10 07:39:20;;;;;;;5.30;2.80;;;19.40;99.90;;;;;;6067150;23;20434;-79
2022/06/10 07:42:00;;;;;;;3.73;2.60;;;19.90;99.90;;;;;;6092591;23;20462;-80
2022/06/10 07:44:28;;;;;;;3.87;2.30;;;20.40;99.90;;;;;;6092151;23;20572;-78
2022/06/10 07:46:58;;;;;;;3.70;2.60;;;21.10;99.90;;;;;;6092301;23;20466;-78
2022/06/10 07:49:25;;;;;;;4.07;2.53;;;21.80;99.90;;;;;;6092604;23;20442;-78
2022/06/10 07:51:54;;;;;;;4.63;2.53;;;22.30;99.90;;;;;;6092730;23;20437;-78
2022/06/10 07:54:21;;;;;;;4.83;2.80;;;22.60;99.90;;;;;;6092926;23;20442;-78
2022/06/10 07:56:48;;;;;;;4.47;2.53;;;22.80;99.90;;;;;;6092320;23;20461;-78
2022/06/10 07:59:15;;;;;;;4.67;2.67;;;23.10;99.90;;;;;;6092490;23;20962;-78
2022/06/10 08:01:43;;;;;;;3.90;2.63;;;23.50;99.90;;;;;;6093140;23;20485;-79
2022/06/10 08:04:10;;;;;;;4.50;2.63;;;23.90;99.90;;;;;;6093128;23;20454;-80
2022/06/10 08:06:41;;;;;;;3.00;2.30;;;24.10;99.90;;;;;;6092419;23;20541;-78
2022/06/10 08:09:10;;;;;;;3.03;2.30;;;24.20;99.90;;;;;;6093043;23;20470;-79
2022/06/10 08:11:38;;;;;;;3.37;2.50;;;24.50;99.90;;;;;;6092706;23;20517;-80
2022/06/10 08:14:05;;;;;;;4.67;2.63;;;24.50;99.90;;;;;;6093045;23;20492;-78
2022/06/10 08:16:33;;;;;;;4.73;2.60;;;24.50;99.90;;;;;;6092511;23;20985;-78
2022/06/10 08:19:01;;;;;;;2.87;2.40;;;24.50;99.90;;;;;;6092624;23;20502;-78
2022/06/10 08:22:32;;;;;;;3.73;2.97;;;24.60;99.90;;;;;;6091837;23;20466;-78
2022/06/10 08:24:20;;;;;;;3.60;2.37;;;24.70;99.90;;;;;;6092602;23;20918;-80
2022/06/10 08:26:49;;;;;;;4.40;2.57;;;24.90;99.90;;;;;;6066786;23;20961;-79
2022/06/10 08:29:16;;;;;;;7.30;2.80;;;25.20;99.80;;;;;;6092453;23;20869;-80
2022/06/10 08:31:43;;;;;;;3.63;2.77;;;25.40;99.40;;;;;;6067125;23;20930;-80
2022/06/10 08:34:11;;;;;;;3.60;3.00;;;25.30;98.60;;;;;;6092755;23;20458;-78
2022/06/10 08:36:38;;;;;;;5.40;2.87;;;25.40;98.50;;;;;;6092007;23;20493;-78
2022/06/10 08:39:05;;;;;;;3.70;2.50;;;25.20;98.50;;;;;;6093066;23;20466;-78
2022/06/10 08:41:48;;;;;;;3.70;3.00;;;25.40;98.40;;;;;;6092584;23;20438;-80
2022/06/10 08:44:30;;;;;;;6.60;2.97;;;25.50;97.60;;;;;;6092997;23;20450;-80
2022/06/10 08:47:32;;;;;;;5.47;3.10;;;25.10;97.80;;;;;;6092521;23;20465;-80
2022/06/10 08:50:19;;;;;;;3.80;3.03;;;25.00;98.20;;;;;;6037062;23;20834;-80
2022/06/10 08:53:00;;;;;;;3.90;2.60;;;25.00;97.70;;;;;;6092546;23;20521;-80
2022/06/10 08:55:40;;;;;;;4.00;2.80;;;25.30;98.10;;;;;;6091182;23;20430;-80
2022/06/10 08:58:16;;;;;;;4.17;3.47;;;26.00;96.90;;;;;;6092699;23;20557;-80
2022/06/10 09:00:44;;;;;;;3.40;3.10;;;26.30;94.90;;;;;;6092504;23;20513;-81
2022/06/10 09:03:17;;;;;;;5.20;2.77;;;26.20;95.10;;;;;;6092684;23;20434;-80
2022/06/10 09:05:49;;;;;;;5.60;2.87;;;26.30;95.50;;;;;;6091938;23;20538;-80
2022/06/10 09:08:18;;;;;;;3.83;2.93;;;26.30;94.40;;;;;;6092189;23;20928;-80
2022/06/10 09:10:49;;;;;;;3.80;3.30;;;26.30;94.30;;;;;;6092590;23;20479;-80
2022/06/10 09:13:31;;;;;;;4.60;3.27;;;26.50;94.40;;;;;;6092424;23;20984;-80
2022/06/10 09:16:06;;;;;;;3.40;2.73;;;27.20;93.80;;;;;;6091781;23;20458;-80
2022/06/10 09:18:41;;;;;;;4.30;2.70;;;27.60;92.60;;;;;;6092328;23;20569;-78
2022/06/10 09:21:16;;;;;;;4.53;2.60;;;28.00;91.00;;;;;;6092052;23;20940;-77
2022/06/10 09:23:44;;;;;;;3.97;2.50;;;27.60;89.90;;;;;;6092341;23;20513;-77
2022/06/10 09:26:18;;;;;;;4.43;2.57;;;27.50;89.40;;;;;;6091931;23;21012;-77
2022/06/10 09:28:46;;;;;;;4.40;2.77;;;27.40;90.50;;;;;;6092329;23;20435;-77
2022/06/10 09:31:28;;;;;;;3.23;2.83;;;27.30;90.30;;;;;;6092225;23;20444;-77
2022/06/10 09:34:03;;;;;;;4.57;2.77;;;27.50;90.50;;;;;;6092322;23;20430;-78
2022/06/10 09:36:38;;;;;;;2.60;2.40;;;28.10;88.00;;;;;;6092159;23;20476;-78
2022/06/10 09:40:35;;;;;;;4.07;2.47;;;27.10;87.90;;;;;;6091728;23;20540;-79
2022/06/10 09:42:07;;;;;;;4.40;2.20;;;27.60;88.40;;;;;;6092388;23;20521;-79
2022/06/10 09:44:42;;;;;;;3.33;2.10;;;28.50;84.30;;;;;;6092260;23;20533;-79
2022/06/10 09:47:20;;;;;;;2.30;2.10;;;29.10;81.90;;;;;;6091730;23;20458;-79
2022/06/10 09:50:13;;;;;;;3.67;2.53;;;29.50;80.90;;;;;;6092458;23;20468;-79
2022/06/10 09:52:51;;;;;;;3.20;2.17;;;28.80;84.00;;;;;;6091652;23;20798;-78
2022/06/10 09:55:36;;;;;;;3.70;2.30;;;28.30;85.20;;;;;;6092150;23;20430;-78
2022/06/10 09:58:14;;;;;;;4.97;3.23;;;28.00;86.10;;;;;;6091775;23;20455;-79
2022/06/10 10:00:53;;;;;;;3.17;2.60;;;28.10;83.20;;;;;;6092088;23;20438;-79
2022/06/10 10:03:40;;;;;;;5.07;2.60;;;27.50;83.30;;;;;;6091862;23;20942;-79
2022/06/10 10:06:23;;;;;;;2.73;2.40;;;27.00;84.20;;;;;;6091182;23;20454;-79
2022/06/10 10:08:57;;;;;;;2.63;1.80;;;26.00;86.10;;;;;;6093289;23;20480;-78
2022/06/10 10:11:36;;;;;;;2.50;2.00;;;25.40;89.20;;;;;;6093661;23;20799;-79
2022/06/10 10:14:10;;;;;;;4.23;2.57;;;25.00;90.30;;;;;;6093402;23;20448;-79
2022/06/10 10:16:49;;;;;;;4.07;2.53;;;24.90;90.60;;;;;;6093287;23;21019;-78
2022/06/10 10:19:29;;;;;;;4.73;2.60;;;25.20;90.80;;;;;;6093581;23;20466;-79
2022/06/10 10:22:05;;;;;;;2.87;2.67;;;25.40;90.60;;;;;;6094012;23;20457;-79
2022/06/10 10:24:39;;;;;;;3.63;3.30;;;25.20;88.60;;;;;;6094014;23;20849;-79
2022/06/10 10:27:10;;;;;;;3.83;2.30;;;25.00;89.30;;;;;;6093339;23;20533;-79
2022/06/10 10:29:41;;;;;;;5.10;2.50;;;24.60;91.00;;;;;;6095831;23;20465;-79
2022/06/10 10:32:14;;;;;;;2.80;2.10;;;24.40;92.30;;;;;;6106875;23;20458;-78
2022/06/10 10:34:44;;;;;;;4.70;2.43;;;24.80;92.50;;;;;;6113612;23;20500;-78
2022/06/10 10:37:22;;;;;;;4.40;2.33;;;25.80;91.50;;;;;;6112879;23;20870;-79
2022/06/10 10:39:53;;;;;;;3.43;2.40;;;27.30;88.60;;;;;;6095355;23;20488;-79
2022/06/10 10:42:23;;;;;;;4.90;2.47;;;27.30;87.40;;;;;;6095886;23;20438;-79
2022/06/10 10:44:58;;;;;;;4.10;2.57;;;28.30;87.10;;;;;;6111165;23;20446;-78
2022/06/10 10:47:28;;;;;;;2.63;2.00;;;29.20;82.90;;;;;;6113931;23;20458;-78
2022/06/10 10:49:58;;;;;;;4.40;2.63;;;30.10;81.40;;;;;;6116442;23;20503;-78
2022/06/10 10:52:29;;;;;;;3.17;2.40;;;30.80;77.40;;;;;;6113341;23;20430;-79
2022/06/10 10:55:00;;;;;;;3.60;2.00;;;31.70;71.70;;;;;;6093631;23;20430;-79
2022/06/10 10:57:32;;;;;;;3.83;1.80;;;32.40;69.40;;;;;;6093221;23;20488;-79
2022/06/10 11:00:24;;;;;;;4.77;2.07;;;32.40;68.40;;;;;;6093098;23;20508;-80
2022/06/10 11:02:56;;;;;;;2.60;2.27;;;32.70;66.20;;;;;;6093159;23;20507;-80
2022/06/10 11:05:32;;;;;;;3.87;1.97;;;32.40;64.70;;;;;;6092969;23;20462;-79
2022/06/10 11:08:24;;;;;;;2.97;1.80;;;32.20;63.60;;;;;;6093731;23;20434;-79
2022/06/10 11:11:05;;;;;;;3.23;1.80;;;32.00;66.10;;;;;;6066123;23;20466;-80
2022/06/10 11:13:38;;;;;;;2.43;1.90;;;32.10;64.50;;;;;;6093158;23;20438;-80
2022/06/10 11:16:39;;;;;;;3.30;2.13;;;32.10;63.70;;;;;;6092742;23;20545;-80
2022/06/10 11:19:19;;;;;;;2.73;2.03;;;31.50;63.40;;;;;;6082750;23;20471;-83
2022/06/10 11:22:09;;;;;;;3.10;2.10;;;31.90;62.50;;;;;;6070071;23;21141;-83
2022/06/10 11:24:39;;;;;;;3.20;2.00;;;31.10;61.60;;;;;;6062892;23;20450;-83
2022/06/10 11:27:21;;;;;;;3.17;1.87;;;30.00;66.50;;;;;;6062313;23;20483;-83
2022/06/10 11:30:17;;;;;;;4.37;2.30;;;29.70;66.20;;;;;;6063035;23;20490;-83
2022/06/10 11:32:56;;;;;;;5.83;2.60;;;29.40;64.80;;;;;;6053568;23;20926;-83
2022/06/10 11:35:28;;;;;;;5.10;2.07;;;28.90;67.40;;;;;;6062172;23;20966;-84
2022/06/10 11:37:59;;;;;;;3.57;1.87;;;29.30;69.00;;;;;;6062542;23;20505;-84
2022/06/10 11:40:28;;;;;;;1.90;1.70;;;30.00;66.30;;;;;;6062683;23;20502;-84
2022/06/10 11:43:02;;;;;;;2.90;2.03;;;30.20;64.90;;;;;;6062938;23;20431;-83
2022/06/10 11:45:32;;;;;;;3.27;2.30;;;29.90;65.10;;;;;;6062363;23;20482;-83
2022/06/10 11:48:05;;;;;;;4.17;2.37;;;29.50;65.50;;;;;;6062337;23;20443;-84
2022/06/10 11:50:42;;;;;;;3.60;1.90;;;29.40;66.30;;;;;;6062861;23;20527;-83
2022/06/10 11:53:17;;;;;;;5.30;3.00;;;28.80;65.90;;;;;;6062881;23;20438;-83
2022/06/10 11:55:45;;;;;;;3.30;2.37;;;28.20;67.20;;;;;;6062060;23;20993;-83
2022/06/10 12:01:08;;;;;;;15.70;8.10;;;28.10;70.30;;;;;;6062753;23;20474;-84
2022/06/10 12:03:39;;;;;;;9.50;5.30;;;28.70;71.20;;;;;;6062857;23;20478;-84
2022/06/10 12:06:13;;;;;;;11.03;5.70;;;29.30;70.30;;;;;;6062403;23;20456;-83
2022/06/10 12:08:47;;;;;;;2.90;2.20;;;29.50;65.30;;;;;;6062795;23;20763;-84
2022/06/10 12:11:36;;;;;;;5.50;2.77;;;29.60;66.90;;;;;;6062574;23;20494;-84
2022/06/10 12:14:13;;;;;;;5.07;2.10;;;29.70;66.90;;;;;;6054890;23;20832;-84
2022/06/10 12:16:42;;;;;;;2.90;2.00;;;30.20;64.80;;;;;;6062286;23;20513;-84
2022/06/10 12:19:20;;;;;;;7.43;3.83;;;30.30;64.80;;;;;;6061835;23;20459;-84
2022/06/10 12:21:48;;;;;;;10.80;6.13;;;30.00;66.00;;;;;;6062773;23;20458;-84
2022/06/10 12:24:17;;;;;;;14.07;5.87;;;30.40;67.70;;;;;;6062458;23;20768;-83
2022/06/10 12:26:49;;;;;;;11.63;6.83;;;30.90;67.70;;;;;;6062260;23;20483;-84
2022/06/10 12:29:19;;;;;;;8.93;3.33;;;31.40;67.00;;;;;;6062010;23;20505;-83
2022/06/10 12:31:58;;;;;;;9.43;4.30;;;31.50;62.40;;;;;;6062153;23;20447;-84
2022/06/10 12:34:45;;;;;;;5.00;2.23;;;31.10;62.40;;;;;;6062721;23;20779;-84
2022/06/10 12:37:19;;;;;;;16.00;9.37;;;30.60;63.70;;;;;;6061995;23;20455;-84
2022/06/10 12:39:52;;;;;;;6.47;3.30;;;30.20;66.00;;;;;;6062399;23;20865;-84
2022/06/10 12:42:23;;;;;;;5.23;3.40;;;30.30;65.20;;;;;;6062417;23;20466;-84
2022/06/10 12:44:55;;;;;;;3.03;2.20;;;30.40;64.70;;;;;;6062740;23;20470;-84
2022/06/10 12:47:27;;;;;;;6.03;3.13;;;30.70;61.80;;;;;;6062310;23;20522;-84
2022/06/10 12:50:00;;;;;;;8.53;3.83;;;30.80;64.00;;;;;;6062415;23;20439;-84
2022/06/10 12:52:39;;;;;;;3.53;2.30;;;29.50;63.30;;;;;;6062285;23;20768;-83
2022/06/10 12:55:20;;;;;;;5.30;3.83;;;29.30;63.20;;;;;;6062441;23;20527;-84
2022/06/10 12:57:49;;;;;;;6.57;3.67;;;29.00;65.60;;;;;;6061942;23;20811;-83
2022/06/10 13:00:44;;;;;;;21.93;12.50;;;28.80;65.40;;;;;;6062520;23;20587;-84
2022/06/10 13:03:34;;;;;;;8.03;5.23;;;28.40;68.10;;;;;;5996015;23;20478;-84
2022/06/10 13:06:23;;;;;;;2.97;2.10;;;28.30;66.70;;;;;;6062060;23;20455;-83
2022/06/10 13:08:55;;;;;;;4.10;2.80;;;29.40;65.70;;;;;;6061862;23;20443;-84
2022/06/10 13:11:40;;;;;;;2.63;1.60;;;31.10;59.60;;;;;;6062508;23;20478;-84
2022/06/10 13:14:19;;;;;;;2.77;1.90;;;30.80;59.70;;;;;;6062511;23;20441;-83
2022/06/10 13:16:48;;;;;;;3.53;1.83;;;31.70;58.50;;;;;;6061829;23;20512;-84
2022/06/10 13:19:30;;;;;;;2.80;1.93;;;32.00;58.60;;;;;;6062061;23;20494;-84